sensor_id;sensor_type;location;lat;lon;timestamp;pressure;altitude;pressure_sealevel;temperature;humidity
77299;BME280;66361;52.034;20.656;2024-02-26T00:00:07;99091.56;;;2.60;94.88
77299;BME280;66361;52.034;20.656;2024-02-26T00:04:12;99086.38;;;2.58;94.28
77299;BME280;66361;52.034;20.656;2024-02-26T00:07:58;99087.53;;;2.46;95.32
77299;BME280;66361;52.034;20.656;2024-02-26T00:11:47;99085.19;;;2.37;94.65
77299;BME280;66361;52.034;20.656;2024-02-26T00:15:30;99078.16;;;2.39;94.77
77299;BME280;66361;52.034;20.656;2024-02-26T00:19:14;99071.41;;;2.32;94.79
77299;BME280;66361;52.034;20.656;2024-02-26T00:23:00;99080.16;;;2.30;94.84
77299;BME280;66361;52.034;20.656;2024-02-26T00:26:44;99074.31;;;2.22;95.60
77299;BME280;66361;52.034;20.656;2024-02-26T00:30:28;99071.06;;;2.12;95.19
77299;BME280;66361;52.034;20.656;2024-02-26T00:34:12;99084.25;;;2.04;94.95
77299;BME280;66361;52.034;20.656;2024-02-26T00:37:56;99080.34;;;1.87;95.20
77299;BME280;66361;52.034;20.656;2024-02-26T00:41:42;99084.56;;;1.91;95.27
77299;BME280;66361;52.034;20.656;2024-02-26T00:45:27;99081.22;;;1.86;95.93
77299;BME280;66361;52.034;20.656;2024-02-26T00:49:13;99069.13;;;1.85;95.02
77299;BME280;66361;52.034;20.656;2024-02-26T00:52:57;99067.19;;;1.93;95.41
77299;BME280;66361;52.034;20.656;2024-02-26T00:56:43;99071.59;;;1.89;96.01
77299;BME280;66361;52.034;20.656;2024-02-26T01:00:27;99062.88;;;1.93;96.32
77299;BME280;66361;52.034;20.656;2024-02-26T01:04:11;99063.31;;;1.73;95.62
77299;BME280;66361;52.034;20.656;2024-02-26T01:07:55;99065.91;;;1.73;96.39
77299;BME280;66361;52.034;20.656;2024-02-26T01:11:39;99069.53;;;1.66;95.84
77299;BME280;66361;52.034;20.656;2024-02-26T01:15:28;99078.25;;;1.65;96.42
77299;BME280;66361;52.034;20.656;2024-02-26T01:19:12;99069.63;;;1.63;96.38
77299;BME280;66361;52.034;20.656;2024-02-26T01:22:56;99070.47;;;1.64;96.25
77299;BME280;66361;52.034;20.656;2024-02-26T01:26:40;99069.50;;;1.68;96.70
77299;BME280;66361;52.034;20.656;2024-02-26T01:30:23;99071.25;;;1.66;96.73
77299;BME280;66361;52.034;20.656;2024-02-26T01:34:09;99068.78;;;1.61;96.51
77299;BME280;66361;52.034;20.656;2024-02-26T01:37:53;99068.78;;;1.61;96.17
77299;BME280;66361;52.034;20.656;2024-02-26T01:41:36;99074.88;;;1.59;97.23
77299;BME280;66361;52.034;20.656;2024-02-26T01:45:20;99075.69;;;1.62;97.07
77299;BME280;66361;52.034;20.656;2024-02-26T01:49:09;99069.75;;;1.57;97.24
77299;BME280;66361;52.034;20.656;2024-02-26T01:52:56;99078.44;;;1.56;96.82
77299;BME280;66361;52.034;20.656;2024-02-26T01:56:40;99074.22;;;1.51;97.01
77299;BME280;66361;52.034;20.656;2024-02-26T02:00:25;99074.88;;;1.60;96.59
77299;BME280;66361;52.034;20.656;2024-02-26T02:04:10;99073.03;;;1.65;96.69
77299;BME280;66361;52.034;20.656;2024-02-26T02:07:55;99067.94;;;1.59;96.85
77299;BME280;66361;52.034;20.656;2024-02-26T02:11:39;99078.50;;;1.53;97.58
77299;BME280;66361;52.034;20.656;2024-02-26T02:15:24;99069.94;;;1.48;97.40
77299;BME280;66361;52.034;20.656;2024-02-26T02:19:10;99063.19;;;1.39;97.23
77299;BME280;66361;52.034;20.656;2024-02-26T02:22:55;99063.19;;;1.41;96.94
77299;BME280;66361;52.034;20.656;2024-02-26T02:26:39;99075.47;;;1.33;97.82
77299;BME280;66361;52.034;20.656;2024-02-26T02:30:26;99078.19;;;1.28;97.92
77299;BME280;66361;52.034;20.656;2024-02-26T02:34:12;99076.75;;;1.14;97.00
77299;BME280;66361;52.034;20.656;2024-02-26T02:43:32;99079.13;;;1.23;97.17
77299;BME280;66361;52.034;20.656;2024-02-26T02:47:15;99087.00;;;1.20;97.98
77299;BME280;66361;52.034;20.656;2024-02-26T02:50:59;99085.56;;;1.05;97.21
77299;BME280;66361;52.034;20.656;2024-02-26T02:54:46;99091.78;;;0.96;97.89
77299;BME280;66361;52.034;20.656;2024-02-26T02:58:31;99088.47;;;0.88;97.00
77299;BME280;66361;52.034;20.656;2024-02-26T03:02:15;99095.50;;;0.83;97.70
77299;BME280;66361;52.034;20.656;2024-02-26T03:05:59;99093.03;;;0.77;97.47
77299;BME280;66361;52.034;20.656;2024-02-26T03:09:43;99101.69;;;0.76;97.90
77299;BME280;66361;52.034;20.656;2024-02-26T03:13:27;99099.88;;;0.80;98.01
77299;BME280;66361;52.034;20.656;2024-02-26T03:17:13;99098.13;;;0.82;97.58
77299;BME280;66361;52.034;20.656;2024-02-26T03:20:57;99105.72;;;0.92;98.18
77299;BME280;66361;52.034;20.656;2024-02-26T03:24:41;99104.94;;;0.87;98.02
77299;BME280;66361;52.034;20.656;2024-02-26T03:28:25;99105.09;;;0.78;97.39
77299;BME280;66361;52.034;20.656;2024-02-26T03:32:09;99098.25;;;0.76;98.15
77299;BME280;66361;52.034;20.656;2024-02-26T03:35:54;99094.69;;;0.81;98.43
77299;BME280;66361;52.034;20.656;2024-02-26T03:39:38;99095.56;;;0.79;97.80
77299;BME280;66361;52.034;20.656;2024-02-26T03:43:22;99090.59;;;0.70;97.65
77299;BME280;66361;52.034;20.656;2024-02-26T03:47:06;99089.78;;;0.65;98.18
77299;BME280;66361;52.034;20.656;2024-02-26T03:50:50;99091.47;;;0.69;98.04
77299;BME280;66361;52.034;20.656;2024-02-26T03:54:35;99091.63;;;0.59;97.82
77299;BME280;66361;52.034;20.656;2024-02-26T03:58:19;99078.66;;;0.58;97.72
77299;BME280;66361;52.034;20.656;2024-02-26T04:02:03;99086.44;;;0.58;97.50
77299;BME280;66361;52.034;20.656;2024-02-26T04:05:47;99091.72;;;0.53;97.66
77299;BME280;66361;52.034;20.656;2024-02-26T04:09:32;99098.78;;;0.45;97.76
77299;BME280;66361;52.034;20.656;2024-02-26T04:13:17;99086.47;;;0.56;97.81
77299;BME280;66361;52.034;20.656;2024-02-26T04:17:01;99089.84;;;0.63;98.39
77299;BME280;66361;52.034;20.656;2024-02-26T04:20:45;99096.94;;;0.52;97.99
77299;BME280;66361;52.034;20.656;2024-02-26T04:24:30;99088.44;;;0.42;98.49
77299;BME280;66361;52.034;20.656;2024-02-26T04:28:14;99094.47;;;0.46;98.33
77299;BME280;66361;52.034;20.656;2024-02-26T04:31:59;99092.75;;;0.43;97.64
77299;BME280;66361;52.034;20.656;2024-02-26T04:35:45;99093.78;;;0.35;98.45
77299;BME280;66361;52.034;20.656;2024-02-26T04:39:29;99095.59;;;0.30;98.28
77299;BME280;66361;52.034;20.656;2024-02-26T04:43:14;99088.66;;;0.32;98.14
77299;BME280;66361;52.034;20.656;2024-02-26T04:46:59;99086.91;;;0.32;97.59
77299;BME280;66361;52.034;20.656;2024-02-26T04:50:44;99087.94;;;0.22;97.80
77299;BME280;66361;52.034;20.656;2024-02-26T04:54:28;99092.50;;;0.06;97.94
77299;BME280;66361;52.034;20.656;2024-02-26T04:58:12;99095.94;;;0.08;97.99
77299;BME280;66361;52.034;20.656;2024-02-26T05:01:56;99100.03;;;0.21;97.92
77299;BME280;66361;52.034;20.656;2024-02-26T05:05:41;99094.31;;;0.55;98.60
77299;BME280;66361;52.034;20.656;2024-02-26T05:09:25;99097.00;;;0.95;99.15
77299;BME280;66361;52.034;20.656;2024-02-26T05:13:09;99097.97;;;0.91;99.08
77299;BME280;66361;52.034;20.656;2024-02-26T05:16:53;99106.22;;;1.11;99.62
77299;BME280;66361;52.034;20.656;2024-02-26T05:20:37;99097.97;;;1.34;98.96
77299;BME280;66361;52.034;20.656;2024-02-26T05:24:22;99105.91;;;1.26;99.29
77299;BME280;66361;52.034;20.656;2024-02-26T05:28:06;99109.53;;;1.18;99.46
77299;BME280;66361;52.034;20.656;2024-02-26T05:31:50;99108.53;;;1.25;99.74
77299;BME280;66361;52.034;20.656;2024-02-26T05:35:37;99114.56;;;1.27;99.47
77299;BME280;66361;52.034;20.656;2024-02-26T05:39:22;99126.59;;;1.29;99.41
77299;BME280;66361;52.034;20.656;2024-02-26T05:43:06;99116.31;;;1.26;98.64
77299;BME280;66361;52.034;20.656;2024-02-26T05:46:49;99117.06;;;1.31;98.83
77299;BME280;66361;52.034;20.656;2024-02-26T05:50:33;99122.03;;;1.42;99.14
77299;BME280;66361;52.034;20.656;2024-02-26T05:54:17;99131.00;;;1.69;99.70
77299;BME280;66361;52.034;20.656;2024-02-26T05:58:03;99127.78;;;1.96;99.19
77299;BME280;66361;52.034;20.656;2024-02-26T06:01:47;99121.34;;;2.12;99.04
77299;BME280;66361;52.034;20.656;2024-02-26T06:05:31;99135.81;;;2.24;99.28
77299;BME280;66361;52.034;20.656;2024-02-26T06:09:15;99126.91;;;2.33;99.02
77299;BME280;66361;52.034;20.656;2024-02-26T06:12:59;99129.38;;;2.39;98.82
77299;BME280;66361;52.034;20.656;2024-02-26T06:16:44;99138.63;;;2.50;98.83
77299;BME280;66361;52.034;20.656;2024-02-26T06:20:28;99134.75;;;2.67;98.62
77299;BME280;66361;52.034;20.656;2024-02-26T06:24:12;99134.97;;;2.91;97.94
77299;BME280;66361;52.034;20.656;2024-02-26T06:27:56;99134.81;;;3.28;97.37
77299;BME280;66361;52.034;20.656;2024-02-26T06:31:40;99136.38;;;3.65;96.84
77299;BME280;66361;52.034;20.656;2024-02-26T06:35:26;99138.94;;;3.96;95.57
77299;BME280;66361;52.034;20.656;2024-02-26T06:39:10;99153.03;;;4.18;94.72
77299;BME280;66361;52.034;20.656;2024-02-26T06:42:54;99152.19;;;4.44;94.17
77299;BME280;66361;52.034;20.656;2024-02-26T06:46:38;99149.72;;;4.66;94.12
77299;BME280;66361;52.034;20.656;2024-02-26T06:50:22;99149.94;;;4.86;93.99
77299;BME280;66361;52.034;20.656;2024-02-26T06:54:07;99152.34;;;5.17;93.84
77299;BME280;66361;52.034;20.656;2024-02-26T06:57:52;99145.78;;;7.67;89.21
77299;BME280;66361;52.034;20.656;2024-02-26T07:01:35;99153.56;;;11.35;82.46
77299;BME280;66361;52.034;20.656;2024-02-26T07:05:19;99152.44;;;12.51;80.28
77299;BME280;66361;52.034;20.656;2024-02-26T07:09:04;99160.59;;;11.20;77.53
77299;BME280;66361;52.034;20.656;2024-02-26T07:12:49;99169.91;;;9.37;75.47
77299;BME280;66361;52.034;20.656;2024-02-26T07:16:33;99168.22;;;8.30;77.19
77299;BME280;66361;52.034;20.656;2024-02-26T07:20:17;99171.94;;;7.49;78.57
77299;BME280;66361;52.034;20.656;2024-02-26T07:24:03;99174.75;;;7.24;80.08
77299;BME280;66361;52.034;20.656;2024-02-26T07:27:48;99173.69;;;7.49;80.05
77299;BME280;66361;52.034;20.656;2024-02-26T07:31:32;99165.75;;;10.92;75.10
77299;BME280;66361;52.034;20.656;2024-02-26T07:35:16;99160.03;;;14.48;63.35
77299;BME280;66361;52.034;20.656;2024-02-26T07:39:00;99164.97;;;16.60;52.76
77299;BME280;66361;52.034;20.656;2024-02-26T07:42:43;99166.56;;;18.68;46.65
77299;BME280;66361;52.034;20.656;2024-02-26T07:46:29;99170.13;;;19.26;47.20
77299;BME280;66361;52.034;20.656;2024-02-26T07:50:13;99173.66;;;19.17;44.66
77299;BME280;66361;52.034;20.656;2024-02-26T07:53:56;99183.91;;;20.17;45.23
77299;BME280;66361;52.034;20.656;2024-02-26T07:57:45;99183.41;;;20.68;44.00
77299;BME280;66361;52.034;20.656;2024-02-26T08:01:31;99181.53;;;19.57;44.99
77299;BME280;66361;52.034;20.656;2024-02-26T08:05:16;99182.06;;;20.81;44.17
77299;BME280;66361;52.034;20.656;2024-02-26T08:08:59;99181.50;;;21.84;41.35
77299;BME280;66361;52.034;20.656;2024-02-26T08:12:44;99176.97;;;21.85;41.42
77299;BME280;66361;52.034;20.656;2024-02-26T08:16:28;99181.16;;;20.91;41.61
77299;BME280;66361;52.034;20.656;2024-02-26T08:20:16;99173.88;;;20.83;43.17
77299;BME280;66361;52.034;20.656;2024-02-26T08:24:01;99189.41;;;20.15;44.09
77299;BME280;66361;52.034;20.656;2024-02-26T08:27:44;99190.25;;;21.43;41.22
77299;BME280;66361;52.034;20.656;2024-02-26T08:31:29;99200.25;;;19.77;44.81
77299;BME280;66361;52.034;20.656;2024-02-26T08:35:13;99199.66;;;19.83;46.07
77299;BME280;66361;52.034;20.656;2024-02-26T08:38:59;99197.06;;;20.37;43.92
77299;BME280;66361;52.034;20.656;2024-02-26T08:42:45;99194.81;;;20.05;45.40
77299;BME280;66361;52.034;20.656;2024-02-26T08:46:28;99194.19;;;19.26;47.39
77299;BME280;66361;52.034;20.656;2024-02-26T08:50:14;99185.47;;;19.24;46.36
77299;BME280;66361;52.034;20.656;2024-02-26T08:53:59;99184.44;;;17.56;50.63
77299;BME280;66361;52.034;20.656;2024-02-26T08:57:46;99192.97;;;17.50;50.56
77299;BME280;66361;52.034;20.656;2024-02-26T09:01:31;99182.41;;;18.50;49.33
77299;BME280;66361;52.034;20.656;2024-02-26T09:05:15;99186.06;;;17.89;49.16
77299;BME280;66361;52.034;20.656;2024-02-26T09:09:00;99193.28;;;17.35;51.27
77299;BME280;66361;52.034;20.656;2024-02-26T09:12:46;99188.47;;;16.54;54.91
77299;BME280;66361;52.034;20.656;2024-02-26T09:16:30;99191.22;;;16.08;55.69
77299;BME280;66361;52.034;20.656;2024-02-26T09:20:14;99191.69;;;16.58;54.41
77299;BME280;66361;52.034;20.656;2024-02-26T09:23:57;99190.22;;;17.40;52.25
77299;BME280;66361;52.034;20.656;2024-02-26T09:27:43;99192.97;;;17.50;51.21
77299;BME280;66361;52.034;20.656;2024-02-26T09:31:26;99191.41;;;17.15;52.71
77299;BME280;66361;52.034;20.656;2024-02-26T09:35:10;99191.59;;;16.60;53.02
77299;BME280;66361;52.034;20.656;2024-02-26T09:38:55;99191.81;;;17.31;52.75
77299;BME280;66361;52.034;20.656;2024-02-26T09:42:45;99187.34;;;17.64;53.24
77299;BME280;66361;52.034;20.656;2024-02-26T09:46:28;99186.13;;;17.98;52.48
77299;BME280;66361;52.034;20.656;2024-02-26T09:50:14;99196.41;;;16.77;53.39
77299;BME280;66361;52.034;20.656;2024-02-26T09:54:00;99203.91;;;16.49;55.70
77299;BME280;66361;52.034;20.656;2024-02-26T09:57:51;99196.19;;;16.13;56.81
77299;BME280;66361;52.034;20.656;2024-02-26T10:01:36;99205.00;;;16.36;55.86
77299;BME280;66361;52.034;20.656;2024-02-26T10:05:21;99206.72;;;16.14;55.08
77299;BME280;66361;52.034;20.656;2024-02-26T10:09:04;99201.06;;;17.27;52.66
77299;BME280;66361;52.034;20.656;2024-02-26T10:12:53;99199.63;;;17.23;51.81
77299;BME280;66361;52.034;20.656;2024-02-26T10:16:37;99192.81;;;16.55;53.66
77299;BME280;66361;52.034;20.656;2024-02-26T10:20:21;99203.09;;;15.47;56.33
77299;BME280;66361;52.034;20.656;2024-02-26T10:24:13;99200.97;;;14.44;59.51
77299;BME280;66361;52.034;20.656;2024-02-26T10:28:01;99205.16;;;15.20;59.49
77299;BME280;66361;52.034;20.656;2024-02-26T10:31:45;99205.53;;;16.18;57.02
77299;BME280;66361;52.034;20.656;2024-02-26T10:35:30;99217.25;;;15.24;59.35
77299;BME280;66361;52.034;20.656;2024-02-26T10:39:16;99210.31;;;14.86;59.52
77299;BME280;66361;52.034;20.656;2024-02-26T10:43:02;99211.75;;;14.67;59.53
77299;BME280;66361;52.034;20.656;2024-02-26T10:46:47;99216.47;;;14.87;58.84
77299;BME280;66361;52.034;20.656;2024-02-26T10:50:32;99213.88;;;15.46;58.17
77299;BME280;66361;52.034;20.656;2024-02-26T10:54:18;99211.81;;;15.49;57.60
77299;BME280;66361;52.034;20.656;2024-02-26T10:58:04;99219.34;;;15.08;58.80
77299;BME280;66361;52.034;20.656;2024-02-26T11:01:48;99214.75;;;14.62;60.01
77299;BME280;66361;52.034;20.656;2024-02-26T11:05:33;99217.28;;;13.76;62.58
77299;BME280;66361;52.034;20.656;2024-02-26T11:09:19;99213.56;;;14.04;63.13
77299;BME280;66361;52.034;20.656;2024-02-26T11:13:05;99210.75;;;13.42;63.95
77299;BME280;66361;52.034;20.656;2024-02-26T11:16:49;99215.66;;;13.61;64.33
77299;BME280;66361;52.034;20.656;2024-02-26T11:20:34;99220.31;;;13.45;64.09
77299;BME280;66361;52.034;20.656;2024-02-26T11:24:21;99221.25;;;13.44;64.32
77299;BME280;66361;52.034;20.656;2024-02-26T11:28:10;99216.81;;;13.57;64.11
77299;BME280;66361;52.034;20.656;2024-02-26T11:31:55;99211.84;;;13.53;63.34
77299;BME280;66361;52.034;20.656;2024-02-26T11:35:40;99212.25;;;13.46;64.96
77299;BME280;66361;52.034;20.656;2024-02-26T11:39:27;99207.78;;;12.95;65.11
77299;BME280;66361;52.034;20.656;2024-02-26T11:43:12;99216.69;;;13.33;65.63
77299;BME280;66361;52.034;20.656;2024-02-26T11:46:56;99212.28;;;12.80;65.79
77299;BME280;66361;52.034;20.656;2024-02-26T11:50:40;99205.78;;;12.57;66.76
77299;BME280;66361;52.034;20.656;2024-02-26T11:54:38;99212.88;;;12.57;66.67
77299;BME280;66361;52.034;20.656;2024-02-26T11:58:24;99211.97;;;12.70;66.33
77299;BME280;66361;52.034;20.656;2024-02-26T12:02:08;99205.72;;;12.86;66.60
77299;BME280;66361;52.034;20.656;2024-02-26T12:05:56;99220.53;;;12.47;66.61
77299;BME280;66361;52.034;20.656;2024-02-26T12:09:41;99216.88;;;12.36;67.51
77299;BME280;66361;52.034;20.656;2024-02-26T12:13:30;99199.41;;;12.33;66.74
77299;BME280;66361;52.034;20.656;2024-02-26T12:17:20;99199.47;;;12.60;67.89
77299;BME280;66361;52.034;20.656;2024-02-26T12:21:04;99200.50;;;12.57;66.22
77299;BME280;66361;52.034;20.656;2024-02-26T12:24:58;99203.63;;;12.50;66.60
77299;BME280;66361;52.034;20.656;2024-02-26T12:28:48;99200.00;;;12.65;66.96
77299;BME280;66361;52.034;20.656;2024-02-26T12:32:32;99198.22;;;12.65;66.29
77299;BME280;66361;52.034;20.656;2024-02-26T12:36:16;99195.97;;;12.59;65.93
77299;BME280;66361;52.034;20.656;2024-02-26T12:40:00;99201.63;;;12.67;66.54
77299;BME280;66361;52.034;20.656;2024-02-26T12:43:43;99204.25;;;12.67;66.33
77299;BME280;66361;52.034;20.656;2024-02-26T12:47:32;99197.06;;;12.69;67.08
77299;BME280;66361;52.034;20.656;2024-02-26T12:51:16;99200.22;;;12.76;66.65
77299;BME280;66361;52.034;20.656;2024-02-26T12:55:02;99199.03;;;12.80;65.96
77299;BME280;66361;52.034;20.656;2024-02-26T12:58:47;99191.47;;;12.88;65.89
77299;BME280;66361;52.034;20.656;2024-02-26T13:02:34;99195.16;;;12.86;65.47
77299;BME280;66361;52.034;20.656;2024-02-26T13:06:18;99192.84;;;12.94;66.19
77299;BME280;66361;52.034;20.656;2024-02-26T13:10:02;99192.34;;;13.01;65.09
77299;BME280;66361;52.034;20.656;2024-02-26T13:13:48;99193.53;;;13.10;64.20
77299;BME280;66361;52.034;20.656;2024-02-26T13:17:35;99195.16;;;13.13;63.19
77299;BME280;66361;52.034;20.656;2024-02-26T13:21:20;99196.09;;;13.12;62.86
77299;BME280;66361;52.034;20.656;2024-02-26T13:25:04;99203.22;;;13.24;63.36
77299;BME280;66361;52.034;20.656;2024-02-26T13:28:59;99207.53;;;13.12;62.87
77299;BME280;66361;52.034;20.656;2024-02-26T13:32:44;99190.56;;;13.15;62.01
77299;BME280;66361;52.034;20.656;2024-02-26T13:36:29;99194.28;;;13.12;62.46
77299;BME280;66361;52.034;20.656;2024-02-26T13:40:14;99181.50;;;13.19;61.26
77299;BME280;66361;52.034;20.656;2024-02-26T13:43:58;99173.97;;;13.25;61.21
77299;BME280;66361;52.034;20.656;2024-02-26T13:47:41;99175.25;;;13.20;61.80
77299;BME280;66361;52.034;20.656;2024-02-26T13:51:28;99173.00;;;13.14;62.19
77299;BME280;66361;52.034;20.656;2024-02-26T13:55:17;99180.59;;;13.05;62.88
77299;BME280;66361;52.034;20.656;2024-02-26T13:59:01;99186.63;;;13.07;62.26
77299;BME280;66361;52.034;20.656;2024-02-26T14:02:45;99193.03;;;12.91;63.48
77299;BME280;66361;52.034;20.656;2024-02-26T14:06:30;99194.38;;;12.98;62.46
77299;BME280;66361;52.034;20.656;2024-02-26T14:10:14;99194.22;;;12.99;62.30
77299;BME280;66361;52.034;20.656;2024-02-26T14:13:58;99203.69;;;13.03;62.25
77299;BME280;66361;52.034;20.656;2024-02-26T14:17:42;99209.47;;;12.96;63.20
77299;BME280;66361;52.034;20.656;2024-02-26T14:21:26;99198.13;;;12.94;63.45
77299;BME280;66361;52.034;20.656;2024-02-26T14:25:13;99192.84;;;12.94;63.56
77299;BME280;66361;52.034;20.656;2024-02-26T14:28:57;99200.38;;;13.00;63.16
77299;BME280;66361;52.034;20.656;2024-02-26T14:32:41;99210.03;;;13.01;63.69
77299;BME280;66361;52.034;20.656;2024-02-26T14:36:26;99197.81;;;12.98;63.97
77299;BME280;66361;52.034;20.656;2024-02-26T14:40:13;99202.91;;;12.89;64.68
77299;BME280;66361;52.034;20.656;2024-02-26T14:43:57;99184.78;;;12.83;64.39
77299;BME280;66361;52.034;20.656;2024-02-26T14:47:41;99174.00;;;12.71;65.20
77299;BME280;66361;52.034;20.656;2024-02-26T14:51:26;99186.50;;;12.55;65.62
77299;BME280;66361;52.034;20.656;2024-02-26T14:55:10;99194.13;;;12.33;67.09
77299;BME280;66361;52.034;20.656;2024-02-26T14:58:55;99195.19;;;12.30;67.34
77299;BME280;66361;52.034;20.656;2024-02-26T15:02:39;99185.84;;;12.25;67.95
77299;BME280;66361;52.034;20.656;2024-02-26T15:06:23;99194.97;;;12.19;68.09
77299;BME280;66361;52.034;20.656;2024-02-26T15:10:07;99207.00;;;12.25;68.32
77299;BME280;66361;52.034;20.656;2024-02-26T15:13:51;99211.44;;;12.10;69.24
77299;BME280;66361;52.034;20.656;2024-02-26T15:17:37;99208.50;;;12.01;69.67
77299;BME280;66361;52.034;20.656;2024-02-26T15:21:26;99206.13;;;11.96;69.94
77299;BME280;66361;52.034;20.656;2024-02-26T15:25:10;99205.66;;;11.89;70.00
77299;BME280;66361;52.034;20.656;2024-02-26T15:28:57;99203.41;;;11.83;71.05
77299;BME280;66361;52.034;20.656;2024-02-26T15:32:43;99207.56;;;11.73;71.45
77299;BME280;66361;52.034;20.656;2024-02-26T15:36:27;99209.22;;;11.74;71.31
77299;BME280;66361;52.034;20.656;2024-02-26T15:40:11;99211.41;;;11.82;71.37
77299;BME280;66361;52.034;20.656;2024-02-26T15:43:55;99211.16;;;11.86;70.75
77299;BME280;66361;52.034;20.656;2024-02-26T15:47:41;99208.97;;;11.93;70.46
77299;BME280;66361;52.034;20.656;2024-02-26T15:51:26;99215.03;;;11.81;70.89
77299;BME280;66361;52.034;20.656;2024-02-26T15:55:11;99222.47;;;11.88;70.93
77299;BME280;66361;52.034;20.656;2024-02-26T15:58:59;99231.91;;;11.78;71.35
77299;BME280;66361;52.034;20.656;2024-02-26T16:02:47;99229.81;;;11.69;71.53
77299;BME280;66361;52.034;20.656;2024-02-26T16:06:36;99224.53;;;11.69;71.57
77299;BME280;66361;52.034;20.656;2024-02-26T16:10:21;99224.72;;;11.66;71.86
77299;BME280;66361;52.034;20.656;2024-02-26T16:14:12;99239.16;;;11.75;71.83
77299;BME280;66361;52.034;20.656;2024-02-26T16:17:58;99239.03;;;11.62;72.10
77299;BME280;66361;52.034;20.656;2024-02-26T16:21:43;99238.63;;;11.54;72.50
77299;BME280;66361;52.034;20.656;2024-02-26T16:25:27;99239.56;;;11.53;72.61
77299;BME280;66361;52.034;20.656;2024-02-26T16:29:11;99246.41;;;11.57;73.17
77299;BME280;66361;52.034;20.656;2024-02-26T16:32:55;99253.91;;;11.49;72.93
77299;BME280;66361;52.034;20.656;2024-02-26T16:36:40;99259.19;;;11.49;73.38
77299;BME280;66361;52.034;20.656;2024-02-26T16:40:28;99248.06;;;11.44;73.86
77299;BME280;66361;52.034;20.656;2024-02-26T16:44:13;99249.75;;;11.45;74.01
77299;BME280;66361;52.034;20.656;2024-02-26T16:47:57;99256.34;;;11.52;74.40
77299;BME280;66361;52.034;20.656;2024-02-26T16:51:41;99255.88;;;11.45;74.49
77299;BME280;66361;52.034;20.656;2024-02-26T16:55:25;99262.13;;;11.44;74.67
77299;BME280;66361;52.034;20.656;2024-02-26T16:59:11;99257.56;;;11.46;75.17
77299;BME280;66361;52.034;20.656;2024-02-26T17:02:55;99256.53;;;11.35;75.75
77299;BME280;66361;52.034;20.656;2024-02-26T17:06:41;99254.53;;;11.38;76.31
77299;BME280;66361;52.034;20.656;2024-02-26T17:10:24;99260.19;;;11.32;76.71
77299;BME280;66361;52.034;20.656;2024-02-26T17:14:08;99271.59;;;11.33;76.50
77299;BME280;66361;52.034;20.656;2024-02-26T17:17:53;99265.91;;;11.25;77.28
77299;BME280;66361;52.034;20.656;2024-02-26T17:21:37;99267.69;;;11.24;77.45
77299;BME280;66361;52.034;20.656;2024-02-26T17:25:21;99270.59;;;11.20;77.91
77299;BME280;66361;52.034;20.656;2024-02-26T17:29:05;99280.16;;;11.22;78.19
77299;BME280;66361;52.034;20.656;2024-02-26T17:32:50;99276.53;;;11.23;78.00
77299;BME280;66361;52.034;20.656;2024-02-26T17:36:38;99273.38;;;11.16;78.59
77299;BME280;66361;52.034;20.656;2024-02-26T17:40:22;99272.03;;;11.09;78.75
77299;BME280;66361;52.034;20.656;2024-02-26T17:44:06;99276.72;;;11.04;79.16
77299;BME280;66361;52.034;20.656;2024-02-26T17:47:50;99280.13;;;11.06;79.46
77299;BME280;66361;52.034;20.656;2024-02-26T17:51:34;99282.00;;;11.04;79.67
77299;BME280;66361;52.034;20.656;2024-02-26T17:55:19;99286.50;;;11.02;79.67
77299;BME280;66361;52.034;20.656;2024-02-26T17:59:03;99284.63;;;11.04;79.94
77299;BME280;66361;52.034;20.656;2024-02-26T18:02:47;99291.19;;;10.97;80.07
77299;BME280;66361;52.034;20.656;2024-02-26T18:06:31;99282.19;;;10.86;80.32
77299;BME280;66361;52.034;20.656;2024-02-26T18:10:15;99281.50;;;10.82;80.64
77299;BME280;66361;52.034;20.656;2024-02-26T18:14:02;99285.06;;;10.81;80.97
77299;BME280;66361;52.034;20.656;2024-02-26T18:17:46;99286.34;;;10.74;81.16
77299;BME280;66361;52.034;20.656;2024-02-26T18:21:31;99285.34;;;10.76;81.50
77299;BME280;66361;52.034;20.656;2024-02-26T18:25:15;99273.75;;;10.79;81.48
77299;BME280;66361;52.034;20.656;2024-02-26T18:28:59;99270.44;;;10.75;81.69
77299;BME280;66361;52.034;20.656;2024-02-26T18:32:45;99274.88;;;10.75;81.85
77299;BME280;66361;52.034;20.656;2024-02-26T18:36:32;99269.59;;;10.75;81.71
77299;BME280;66361;52.034;20.656;2024-02-26T18:40:16;99264.31;;;10.75;82.06
77299;BME280;66361;52.034;20.656;2024-02-26T18:44:00;99275.28;;;10.83;81.93
77299;BME280;66361;52.034;20.656;2024-02-26T18:47:45;99269.44;;;10.78;81.88
77299;BME280;66361;52.034;20.656;2024-02-26T18:51:29;99277.75;;;10.70;82.12
77299;BME280;66361;52.034;20.656;2024-02-26T18:55:13;99279.91;;;10.64;82.40
77299;BME280;66361;52.034;20.656;2024-02-26T18:58:58;99277.25;;;10.64;82.64
77299;BME280;66361;52.034;20.656;2024-02-26T19:02:42;99282.34;;;10.67;82.59
77299;BME280;66361;52.034;20.656;2024-02-26T19:06:27;99276.72;;;10.73;82.52
77299;BME280;66361;52.034;20.656;2024-02-26T19:10:12;99286.41;;;10.72;82.66
77299;BME280;66361;52.034;20.656;2024-02-26T19:13:57;99287.88;;;10.78;82.67
77299;BME280;66361;52.034;20.656;2024-02-26T19:17:42;99288.97;;;10.74;82.90
77299;BME280;66361;52.034;20.656;2024-02-26T19:21:26;99295.19;;;10.73;82.72
77299;BME280;66361;52.034;20.656;2024-02-26T19:25:11;99292.66;;;10.71;83.03
77299;BME280;66361;52.034;20.656;2024-02-26T19:28:55;99288.38;;;10.69;83.12
77299;BME280;66361;52.034;20.656;2024-02-26T19:32:39;99295.38;;;10.70;83.11
77299;BME280;66361;52.034;20.656;2024-02-26T19:36:24;99292.13;;;10.65;83.31
77299;BME280;66361;52.034;20.656;2024-02-26T19:40:10;99293.91;;;10.64;83.35
77299;BME280;66361;52.034;20.656;2024-02-26T19:43:54;99297.00;;;10.57;83.64